Allenhurst, New Jersey
Current Conditions -  °F | °C
As of 1:15 AM on Thursday 29 Jan 2015 (Local Time) from KBLM Reporting Station
Clear Clear  
Wind Chill: -13°   Ceiling: Unl
Heat Index: -8°   Visibility: 10mi
Dew Point: -18°   Wind: 7mph
Humidity: 45%   Direction: 330°NNW
Pressure: 30.27"   Gusts: NA
Location:  40.24°N, 74°W
Report Text: KBLM 290615Z AUTO 33006KT 10SM CLR M08/M18 A3027 RMK AO1
Loading
Personal Weather Stations






























Interactive Weather Map New forecast layout! Learn more

10-Day Weather Forecast

Advertisements
Track Severe Weather on mobile